YJT weather

Stephenville Airport
Stephenville, Newfoundland and Labrador, Canada

Public forecast

Using degrees Celsius for public forecast. Weather courtesy of forecast.io.

METAR (pilot weather report)

Retrieved 2019/07/23 17:00 UTC (38 minutes ago):

CYJT 231700Z 07010KT 15SM SCT034 OVC100 19/15 A2988 RMK SC3AC5 SLP119 DENSITY ALT 600FT

TAF (pilot weather forecast)

Retrieved 2019/07/23 12:42 UTC (5 hours ago):

TAF TAF CYJT 231140Z 2312/2412 06008KT P6SM FEW030 OVC150 TEMPO 2312/2315 BKN030 OVC080 BECMG 2313/2315 20010KT FM231500 20010KT P6SM BKN040 OVC120 TEMPO 2315/2318 BKN020 OVC040 FM231800 16010KT P6SM BKN030 OVC080 TEMPO 2318/2324 P6SM -SHRA BKN015 OVC030 BECMG 2319/2321 10008KT FM240000 09005KT P6SM -SHRA OVC015 RMK NXT FCST BY 231800Z